sensor_id;sensor_type;location;lat;lon;timestamp;P1;durP1;ratioP1;P2;durP2;ratioP2
23250;SDS011;11794;49.730;10.088;2022-08-21T00:00:22;5.37;;;1.90;;
23250;SDS011;11794;49.730;10.088;2022-08-21T00:02:54;6.15;;;2.30;;
23250;SDS011;11794;49.730;10.088;2022-08-21T00:05:22;7.35;;;2.65;;
23250;SDS011;11794;49.730;10.088;2022-08-21T00:07:49;6.80;;;2.60;;
23250;SDS011;11794;49.730;10.088;2022-08-21T00:10:16;7.05;;;2.17;;
23250;SDS011;11794;49.730;10.088;2022-08-21T00:12:42;7.00;;;2.20;;
23250;SDS011;11794;49.730;10.088;2022-08-21T00:15:09;6.53;;;2.53;;
23250;SDS011;11794;49.730;10.088;2022-08-21T00:17:36;6.38;;;2.20;;
23250;SDS011;11794;49.730;10.088;2022-08-21T00:20:03;7.63;;;1.73;;
23250;SDS011;11794;49.730;10.088;2022-08-21T00:22:31;7.25;;;2.17;;
23250;SDS011;11794;49.730;10.088;2022-08-21T00:24:57;5.68;;;1.70;;
23250;SDS011;11794;49.730;10.088;2022-08-21T00:27:22;6.23;;;1.70;;
23250;SDS011;11794;49.730;10.088;2022-08-21T00:29:48;5.80;;;1.92;;
23250;SDS011;11794;49.730;10.088;2022-08-21T00:32:18;7.13;;;2.13;;
23250;SDS011;11794;49.730;10.088;2022-08-21T00:34:46;5.95;;;1.65;;
23250;SDS011;11794;49.730;10.088;2022-08-21T00:37:11;7.20;;;2.38;;
23250;SDS011;11794;49.730;10.088;2022-08-21T00:39:37;6.53;;;1.80;;
23250;SDS011;11794;49.730;10.088;2022-08-21T00:42:02;6.23;;;1.93;;
23250;SDS011;11794;49.730;10.088;2022-08-21T00:44:28;7.23;;;1.80;;
23250;SDS011;11794;49.730;10.088;2022-08-21T00:46:54;7.63;;;2.17;;
23250;SDS011;11794;49.730;10.088;2022-08-21T00:49:19;7.13;;;2.22;;
23250;SDS011;11794;49.730;10.088;2022-08-21T00:51:55;6.50;;;2.10;;
23250;SDS011;11794;49.730;10.088;2022-08-21T00:54:24;6.20;;;2.10;;
23250;SDS011;11794;49.730;10.088;2022-08-21T00:56:56;7.72;;;2.17;;
23250;SDS011;11794;49.730;10.088;2022-08-21T00:59:25;5.78;;;1.80;;
23250;SDS011;11794;49.730;10.088;2022-08-21T01:01:52;6.53;;;2.30;;
23250;SDS011;11794;49.730;10.088;2022-08-21T01:04:18;6.43;;;1.83;;
23250;SDS011;11794;49.730;10.088;2022-08-21T01:06:44;6.63;;;2.70;;
23250;SDS011;11794;49.730;10.088;2022-08-21T01:09:11;6.15;;;2.17;;
23250;SDS011;11794;49.730;10.088;2022-08-21T01:11:38;6.18;;;2.00;;
23250;SDS011;11794;49.730;10.088;2022-08-21T01:14:07;7.82;;;2.28;;
23250;SDS011;11794;49.730;10.088;2022-08-21T01:16:35;6.95;;;2.55;;
23250;SDS011;11794;49.730;10.088;2022-08-21T01:19:00;6.30;;;2.20;;
23250;SDS011;11794;49.730;10.088;2022-08-21T01:21:27;6.97;;;2.30;;
23250;SDS011;11794;49.730;10.088;2022-08-21T01:23:53;10.45;;;2.60;;
23250;SDS011;11794;49.730;10.088;2022-08-21T01:26:22;7.03;;;2.20;;
23250;SDS011;11794;49.730;10.088;2022-08-21T01:28:58;6.78;;;2.55;;
23250;SDS011;11794;49.730;10.088;2022-08-21T01:31:29;6.82;;;2.42;;
23250;SDS011;11794;49.730;10.088;2022-08-21T01:33:57;7.03;;;2.30;;
23250;SDS011;11794;49.730;10.088;2022-08-21T01:36:25;7.17;;;2.47;;
23250;SDS011;11794;49.730;10.088;2022-08-21T01:38:51;7.75;;;2.60;;
23250;SDS011;11794;49.730;10.088;2022-08-21T01:41:17;6.53;;;2.10;;
23250;SDS011;11794;49.730;10.088;2022-08-21T01:43:43;6.45;;;2.20;;
23250;SDS011;11794;49.730;10.088;2022-08-21T01:46:10;7.22;;;1.83;;
23250;SDS011;11794;49.730;10.088;2022-08-21T01:48:36;6.35;;;2.05;;
23250;SDS011;11794;49.730;10.088;2022-08-21T01:51:03;6.53;;;2.30;;
23250;SDS011;11794;49.730;10.088;2022-08-21T01:53:29;6.35;;;2.00;;
23250;SDS011;11794;49.730;10.088;2022-08-21T01:55:55;6.83;;;2.20;;
23250;SDS011;11794;49.730;10.088;2022-08-21T01:58:20;6.72;;;2.47;;
23250;SDS011;11794;49.730;10.088;2022-08-21T02:00:46;6.00;;;1.90;;
23250;SDS011;11794;49.730;10.088;2022-08-21T02:03:12;7.25;;;2.40;;
23250;SDS011;11794;49.730;10.088;2022-08-21T02:05:37;6.87;;;2.30;;
23250;SDS011;11794;49.730;10.088;2022-08-21T02:08:03;6.78;;;2.65;;
23250;SDS011;11794;49.730;10.088;2022-08-21T02:10:31;6.53;;;2.23;;
23250;SDS011;11794;49.730;10.088;2022-08-21T02:12:58;6.80;;;2.20;;
23250;SDS011;11794;49.730;10.088;2022-08-21T02:15:25;7.28;;;2.28;;
23250;SDS011;11794;49.730;10.088;2022-08-21T02:17:53;8.15;;;2.13;;
23250;SDS011;11794;49.730;10.088;2022-08-21T02:20:25;6.55;;;2.10;;
23250;SDS011;11794;49.730;10.088;2022-08-21T02:22:51;5.43;;;2.03;;
23250;SDS011;11794;49.730;10.088;2022-08-21T02:25:17;6.35;;;1.85;;
23250;SDS011;11794;49.730;10.088;2022-08-21T02:27:44;5.85;;;1.98;;
23250;SDS011;11794;49.730;10.088;2022-08-21T02:30:17;6.30;;;2.10;;
23250;SDS011;11794;49.730;10.088;2022-08-21T02:32:45;8.73;;;2.27;;
23250;SDS011;11794;49.730;10.088;2022-08-21T02:35:11;6.38;;;1.95;;
23250;SDS011;11794;49.730;10.088;2022-08-21T02:37:47;6.20;;;1.98;;
23250;SDS011;11794;49.730;10.088;2022-08-21T02:40:21;6.82;;;2.22;;
23250;SDS011;11794;49.730;10.088;2022-08-21T02:42:49;6.13;;;1.80;;
23250;SDS011;11794;49.730;10.088;2022-08-21T02:45:14;5.40;;;1.50;;
23250;SDS011;11794;49.730;10.088;2022-08-21T02:47:49;4.72;;;1.40;;
23250;SDS011;11794;49.730;10.088;2022-08-21T02:50:20;5.20;;;1.50;;
23250;SDS011;11794;49.730;10.088;2022-08-21T02:52:49;7.18;;;1.40;;
23250;SDS011;11794;49.730;10.088;2022-08-21T02:55:17;5.47;;;1.25;;
23250;SDS011;11794;49.730;10.088;2022-08-21T02:57:43;4.53;;;1.20;;
23250;SDS011;11794;49.730;10.088;2022-08-21T03:00:09;5.20;;;1.60;;
23250;SDS011;11794;49.730;10.088;2022-08-21T03:02:36;5.15;;;1.50;;
23250;SDS011;11794;49.730;10.088;2022-08-21T03:05:02;4.63;;;1.40;;
23250;SDS011;11794;49.730;10.088;2022-08-21T03:07:28;4.05;;;1.20;;
23250;SDS011;11794;49.730;10.088;2022-08-21T03:09:54;7.85;;;2.15;;
23250;SDS011;11794;49.730;10.088;2022-08-21T03:12:20;5.07;;;1.70;;
23250;SDS011;11794;49.730;10.088;2022-08-21T03:14:45;5.93;;;1.75;;
23250;SDS011;11794;49.730;10.088;2022-08-21T03:17:11;4.83;;;1.60;;
23250;SDS011;11794;49.730;10.088;2022-08-21T03:19:37;6.28;;;1.63;;
23250;SDS011;11794;49.730;10.088;2022-08-21T03:22:02;6.80;;;1.60;;
23250;SDS011;11794;49.730;10.088;2022-08-21T03:24:28;4.72;;;1.33;;
23250;SDS011;11794;49.730;10.088;2022-08-21T03:26:54;5.63;;;1.47;;
23250;SDS011;11794;49.730;10.088;2022-08-21T03:29:19;6.20;;;1.50;;
23250;SDS011;11794;49.730;10.088;2022-08-21T03:31:45;5.30;;;1.33;;
23250;SDS011;11794;49.730;10.088;2022-08-21T03:34:10;8.17;;;1.33;;
23250;SDS011;11794;49.730;10.088;2022-08-21T03:36:36;5.72;;;1.60;;
23250;SDS011;11794;49.730;10.088;2022-08-21T03:39:01;4.33;;;1.43;;
23250;SDS011;11794;49.730;10.088;2022-08-21T03:41:27;4.75;;;1.45;;
23250;SDS011;11794;49.730;10.088;2022-08-21T03:43:53;4.60;;;1.40;;
23250;SDS011;11794;49.730;10.088;2022-08-21T03:46:18;4.60;;;1.45;;
23250;SDS011;11794;49.730;10.088;2022-08-21T03:48:44;3.83;;;1.20;;
23250;SDS011;11794;49.730;10.088;2022-08-21T03:51:10;4.63;;;1.43;;
23250;SDS011;11794;49.730;10.088;2022-08-21T03:53:35;4.95;;;1.42;;
23250;SDS011;11794;49.730;10.088;2022-08-21T03:56:01;4.70;;;1.35;;
23250;SDS011;11794;49.730;10.088;2022-08-21T03:58:28;4.50;;;1.27;;
23250;SDS011;11794;49.730;10.088;2022-08-21T04:00:56;4.35;;;1.27;;
23250;SDS011;11794;49.730;10.088;2022-08-21T04:03:23;5.43;;;1.63;;
23250;SDS011;11794;49.730;10.088;2022-08-21T04:05:50;4.23;;;1.33;;
23250;SDS011;11794;49.730;10.088;2022-08-21T04:08:17;5.05;;;1.58;;
23250;SDS011;11794;49.730;10.088;2022-08-21T04:10:44;5.20;;;1.70;;
23250;SDS011;11794;49.730;10.088;2022-08-21T04:13:12;4.90;;;1.40;;
23250;SDS011;11794;49.730;10.088;2022-08-21T04:15:37;5.63;;;1.80;;
23250;SDS011;11794;49.730;10.088;2022-08-21T04:18:04;5.17;;;1.50;;
23250;SDS011;11794;49.730;10.088;2022-08-21T04:20:30;5.30;;;1.90;;
23250;SDS011;11794;49.730;10.088;2022-08-21T04:22:56;6.65;;;1.25;;
23250;SDS011;11794;49.730;10.088;2022-08-21T04:25:23;5.80;;;1.77;;
23250;SDS011;11794;49.730;10.088;2022-08-21T04:27:50;4.72;;;1.30;;
23250;SDS011;11794;49.730;10.088;2022-08-21T04:30:16;4.43;;;1.42;;
23250;SDS011;11794;49.730;10.088;2022-08-21T04:32:43;10.20;;;1.58;;
23250;SDS011;11794;49.730;10.088;2022-08-21T04:35:10;6.20;;;1.83;;
23250;SDS011;11794;49.730;10.088;2022-08-21T04:37:36;5.30;;;1.80;;
23250;SDS011;11794;49.730;10.088;2022-08-21T04:40:02;5.57;;;1.90;;
23250;SDS011;11794;49.730;10.088;2022-08-21T04:42:29;6.72;;;2.22;;
23250;SDS011;11794;49.730;10.088;2022-08-21T04:44:55;5.50;;;2.10;;
23250;SDS011;11794;49.730;10.088;2022-08-21T04:47:22;6.20;;;1.90;;
23250;SDS011;11794;49.730;10.088;2022-08-21T04:49:49;7.80;;;2.72;;
23250;SDS011;11794;49.730;10.088;2022-08-21T04:52:16;6.45;;;2.35;;
23250;SDS011;11794;49.730;10.088;2022-08-21T04:54:44;7.72;;;2.78;;
23250;SDS011;11794;49.730;10.088;2022-08-21T04:57:12;7.57;;;2.80;;
23250;SDS011;11794;49.730;10.088;2022-08-21T04:59:45;6.82;;;2.30;;
23250;SDS011;11794;49.730;10.088;2022-08-21T05:02:13;7.70;;;2.63;;
23250;SDS011;11794;49.730;10.088;2022-08-21T05:04:42;6.60;;;2.40;;
23250;SDS011;11794;49.730;10.088;2022-08-21T05:07:12;8.68;;;2.78;;
23250;SDS011;11794;49.730;10.088;2022-08-21T05:09:41;7.70;;;2.50;;
23250;SDS011;11794;49.730;10.088;2022-08-21T05:12:07;7.18;;;2.70;;
23250;SDS011;11794;49.730;10.088;2022-08-21T05:14:33;6.05;;;2.50;;
23250;SDS011;11794;49.730;10.088;2022-08-21T05:16:58;9.97;;;3.17;;
23250;SDS011;11794;49.730;10.088;2022-08-21T05:19:24;6.72;;;2.22;;
23250;SDS011;11794;49.730;10.088;2022-08-21T05:21:50;7.63;;;2.60;;
23250;SDS011;11794;49.730;10.088;2022-08-21T05:24:16;7.93;;;2.63;;
23250;SDS011;11794;49.730;10.088;2022-08-21T05:26:42;7.13;;;2.95;;
23250;SDS011;11794;49.730;10.088;2022-08-21T05:29:08;7.28;;;3.10;;
23250;SDS011;11794;49.730;10.088;2022-08-21T05:31:34;7.20;;;2.90;;
23250;SDS011;11794;49.730;10.088;2022-08-21T05:33:59;9.32;;;3.63;;
23250;SDS011;11794;49.730;10.088;2022-08-21T05:36:25;8.80;;;3.00;;
23250;SDS011;11794;49.730;10.088;2022-08-21T05:38:50;8.33;;;2.80;;
23250;SDS011;11794;49.730;10.088;2022-08-21T05:41:16;10.50;;;3.13;;
23250;SDS011;11794;49.730;10.088;2022-08-21T05:43:42;7.90;;;3.00;;
23250;SDS011;11794;49.730;10.088;2022-08-21T05:46:07;8.57;;;3.22;;
23250;SDS011;11794;49.730;10.088;2022-08-21T05:48:34;7.93;;;2.67;;
23250;SDS011;11794;49.730;10.088;2022-08-21T05:51:07;7.33;;;2.63;;
23250;SDS011;11794;49.730;10.088;2022-08-21T05:53:34;7.88;;;3.28;;
23250;SDS011;11794;49.730;10.088;2022-08-21T05:56:01;7.82;;;3.10;;
23250;SDS011;11794;49.730;10.088;2022-08-21T05:58:29;9.27;;;3.40;;
23250;SDS011;11794;49.730;10.088;2022-08-21T06:00:56;9.38;;;3.10;;
23250;SDS011;11794;49.730;10.088;2022-08-21T06:03:23;9.98;;;3.00;;
23250;SDS011;11794;49.730;10.088;2022-08-21T06:05:50;9.55;;;3.83;;
23250;SDS011;11794;49.730;10.088;2022-08-21T06:08:17;8.73;;;3.28;;
23250;SDS011;11794;49.730;10.088;2022-08-21T06:10:44;8.05;;;3.47;;
23250;SDS011;11794;49.730;10.088;2022-08-21T06:13:10;9.80;;;3.53;;
23250;SDS011;11794;49.730;10.088;2022-08-21T06:15:36;8.57;;;3.67;;
23250;SDS011;11794;49.730;10.088;2022-08-21T06:18:02;7.82;;;3.38;;
23250;SDS011;11794;49.730;10.088;2022-08-21T06:20:28;9.30;;;3.73;;
23250;SDS011;11794;49.730;10.088;2022-08-21T06:22:53;9.00;;;3.50;;
23250;SDS011;11794;49.730;10.088;2022-08-21T06:25:19;9.73;;;3.70;;
23250;SDS011;11794;49.730;10.088;2022-08-21T06:27:45;9.25;;;3.90;;
23250;SDS011;11794;49.730;10.088;2022-08-21T06:30:11;9.77;;;4.63;;
23250;SDS011;11794;49.730;10.088;2022-08-21T06:32:36;11.77;;;3.70;;
23250;SDS011;11794;49.730;10.088;2022-08-21T06:35:03;8.75;;;4.00;;
23250;SDS011;11794;49.730;10.088;2022-08-21T06:37:29;9.60;;;3.90;;
23250;SDS011;11794;49.730;10.088;2022-08-21T06:39:55;9.23;;;4.20;;
23250;SDS011;11794;49.730;10.088;2022-08-21T06:42:20;9.40;;;4.10;;
23250;SDS011;11794;49.730;10.088;2022-08-21T06:44:46;10.67;;;4.23;;
23250;SDS011;11794;49.730;10.088;2022-08-21T06:47:12;10.70;;;4.70;;
23250;SDS011;11794;49.730;10.088;2022-08-21T06:49:38;8.77;;;3.70;;
23250;SDS011;11794;49.730;10.088;2022-08-21T06:52:08;9.55;;;3.78;;
23250;SDS011;11794;49.730;10.088;2022-08-21T06:54:34;11.68;;;3.88;;
23250;SDS011;11794;49.730;10.088;2022-08-21T06:57:00;9.23;;;3.33;;
23250;SDS011;11794;49.730;10.088;2022-08-21T06:59:26;8.35;;;3.78;;
23250;SDS011;11794;49.730;10.088;2022-08-21T07:01:51;10.97;;;3.70;;
23250;SDS011;11794;49.730;10.088;2022-08-21T07:04:17;9.93;;;4.00;;
23250;SDS011;11794;49.730;10.088;2022-08-21T07:06:43;9.27;;;3.90;;
23250;SDS011;11794;49.730;10.088;2022-08-21T07:09:08;8.48;;;3.90;;
23250;SDS011;11794;49.730;10.088;2022-08-21T07:11:35;9.97;;;4.00;;
23250;SDS011;11794;49.730;10.088;2022-08-21T07:14:02;9.77;;;4.47;;
23250;SDS011;11794;49.730;10.088;2022-08-21T07:16:27;8.48;;;3.30;;
23250;SDS011;11794;49.730;10.088;2022-08-21T07:18:53;11.53;;;3.87;;
23250;SDS011;11794;49.730;10.088;2022-08-21T07:21:19;10.57;;;3.67;;
23250;SDS011;11794;49.730;10.088;2022-08-21T07:23:46;7.93;;;3.40;;
23250;SDS011;11794;49.730;10.088;2022-08-21T07:26:14;10.23;;;3.60;;
23250;SDS011;11794;49.730;10.088;2022-08-21T07:28:41;9.63;;;4.03;;
23250;SDS011;11794;49.730;10.088;2022-08-21T07:31:06;8.02;;;3.22;;
23250;SDS011;11794;49.730;10.088;2022-08-21T07:33:35;8.20;;;3.05;;
23250;SDS011;11794;49.730;10.088;2022-08-21T07:36:01;7.43;;;3.22;;
23250;SDS011;11794;49.730;10.088;2022-08-21T07:38:27;8.23;;;3.10;;
23250;SDS011;11794;49.730;10.088;2022-08-21T07:40:54;7.80;;;3.00;;
23250;SDS011;11794;49.730;10.088;2022-08-21T07:43:21;7.75;;;3.80;;
23250;SDS011;11794;49.730;10.088;2022-08-21T07:45:47;8.47;;;3.60;;
23250;SDS011;11794;49.730;10.088;2022-08-21T07:48:14;7.55;;;3.42;;
23250;SDS011;11794;49.730;10.088;2022-08-21T07:50:40;7.80;;;3.25;;
23250;SDS011;11794;49.730;10.088;2022-08-21T07:53:06;7.85;;;3.28;;
23250;SDS011;11794;49.730;10.088;2022-08-21T07:55:32;9.50;;;3.35;;
23250;SDS011;11794;49.730;10.088;2022-08-21T07:57:58;8.73;;;3.50;;
23250;SDS011;11794;49.730;10.088;2022-08-21T08:00:25;8.33;;;3.60;;
23250;SDS011;11794;49.730;10.088;2022-08-21T08:02:52;7.80;;;3.25;;
23250;SDS011;11794;49.730;10.088;2022-08-21T08:05:22;7.15;;;3.35;;
23250;SDS011;11794;49.730;10.088;2022-08-21T08:07:49;7.55;;;3.50;;
23250;SDS011;11794;49.730;10.088;2022-08-21T08:10:15;7.15;;;3.30;;
23250;SDS011;11794;49.730;10.088;2022-08-21T08:12:42;7.53;;;3.43;;
23250;SDS011;11794;49.730;10.088;2022-08-21T08:15:10;7.53;;;3.47;;
23250;SDS011;11794;49.730;10.088;2022-08-21T08:17:38;9.07;;;3.78;;
23250;SDS011;11794;49.730;10.088;2022-08-21T08:20:04;7.93;;;3.45;;
23250;SDS011;11794;49.730;10.088;2022-08-21T08:22:30;7.82;;;3.95;;
23250;SDS011;11794;49.730;10.088;2022-08-21T08:24:56;7.50;;;3.20;;
23250;SDS011;11794;49.730;10.088;2022-08-21T08:27:21;6.60;;;3.22;;
23250;SDS011;11794;49.730;10.088;2022-08-21T08:29:47;6.27;;;2.90;;
23250;SDS011;11794;49.730;10.088;2022-08-21T08:32:13;5.88;;;3.03;;
23250;SDS011;11794;49.730;10.088;2022-08-21T08:34:39;7.25;;;3.40;;
23250;SDS011;11794;49.730;10.088;2022-08-21T08:37:06;7.17;;;3.30;;
23250;SDS011;11794;49.730;10.088;2022-08-21T08:39:33;6.80;;;3.13;;
23250;SDS011;11794;49.730;10.088;2022-08-21T08:42:01;6.18;;;2.88;;
23250;SDS011;11794;49.730;10.088;2022-08-21T08:44:35;7.65;;;2.95;;
23250;SDS011;11794;49.730;10.088;2022-08-21T08:47:01;6.68;;;3.20;;
23250;SDS011;11794;49.730;10.088;2022-08-21T08:49:34;6.85;;;3.20;;
23250;SDS011;11794;49.730;10.088;2022-08-21T08:52:18;7.45;;;2.65;;
23250;SDS011;11794;49.730;10.088;2022-08-21T08:54:50;6.63;;;3.40;;
23250;SDS011;11794;49.730;10.088;2022-08-21T08:57:24;7.70;;;3.63;;
23250;SDS011;11794;49.730;10.088;2022-08-21T08:59:52;6.67;;;3.03;;
23250;SDS011;11794;49.730;10.088;2022-08-21T09:02:20;9.07;;;3.10;;
23250;SDS011;11794;49.730;10.088;2022-08-21T09:04:48;7.03;;;3.42;;
23250;SDS011;11794;49.730;10.088;2022-08-21T09:10:02;6.55;;;3.03;;
23250;SDS011;11794;49.730;10.088;2022-08-21T09:12:56;6.68;;;2.78;;
23250;SDS011;11794;49.730;10.088;2022-08-21T09:15:41;7.07;;;3.57;;
23250;SDS011;11794;49.730;10.088;2022-08-21T09:18:26;6.40;;;2.90;;
23250;SDS011;11794;49.730;10.088;2022-08-21T09:21:33;7.30;;;3.30;;
23250;SDS011;11794;49.730;10.088;2022-08-21T09:24:29;5.95;;;2.95;;
23250;SDS011;11794;49.730;10.088;2022-08-21T09:27:19;6.18;;;2.90;;
23250;SDS011;11794;49.730;10.088;2022-08-21T09:29:47;5.70;;;2.55;;
23250;SDS011;11794;49.730;10.088;2022-08-21T09:32:29;6.40;;;3.10;;
23250;SDS011;11794;49.730;10.088;2022-08-21T09:35:00;6.80;;;3.70;;
23250;SDS011;11794;49.730;10.088;2022-08-21T09:37:54;7.38;;;3.38;;
23250;SDS011;11794;49.730;10.088;2022-08-21T09:45:36;7.23;;;3.27;;
23250;SDS011;11794;49.730;10.088;2022-08-21T09:48:12;7.47;;;2.97;;
23250;SDS011;11794;49.730;10.088;2022-08-21T09:50:42;6.00;;;2.70;;
23250;SDS011;11794;49.730;10.088;2022-08-21T09:53:21;7.40;;;2.80;;
23250;SDS011;11794;49.730;10.088;2022-08-21T09:56:00;5.80;;;2.70;;
23250;SDS011;11794;49.730;10.088;2022-08-21T09:58:48;7.80;;;2.58;;
23250;SDS011;11794;49.730;10.088;2022-08-21T10:01:17;5.50;;;2.47;;
23250;SDS011;11794;49.730;10.088;2022-08-21T10:03:48;5.60;;;2.40;;
23250;SDS011;11794;49.730;10.088;2022-08-21T10:06:22;5.82;;;2.55;;
23250;SDS011;11794;49.730;10.088;2022-08-21T10:08:49;5.17;;;2.07;;
23250;SDS011;11794;49.730;10.088;2022-08-21T10:11:16;7.07;;;2.20;;
23250;SDS011;11794;49.730;10.088;2022-08-21T10:16:46;5.53;;;2.10;;
23250;SDS011;11794;49.730;10.088;2022-08-21T10:19:59;5.55;;;2.25;;
23250;SDS011;11794;49.730;10.088;2022-08-21T10:22:22;5.83;;;2.07;;
23250;SDS011;11794;49.730;10.088;2022-08-21T10:25:26;6.83;;;2.20;;
23250;SDS011;11794;49.730;10.088;2022-08-21T10:30:20;5.25;;;1.85;;
23250;SDS011;11794;49.730;10.088;2022-08-21T10:33:05;5.63;;;2.20;;
23250;SDS011;11794;49.730;10.088;2022-08-21T10:35:36;6.20;;;2.47;;
23250;SDS011;11794;49.730;10.088;2022-08-21T10:41:03;5.95;;;1.90;;
23250;SDS011;11794;49.730;10.088;2022-08-21T10:46:51;5.20;;;2.50;;
23250;SDS011;11794;49.730;10.088;2022-08-21T10:49:40;5.32;;;2.38;;
23250;SDS011;11794;49.730;10.088;2022-08-21T10:52:41;4.55;;;1.80;;
23250;SDS011;11794;49.730;10.088;2022-08-21T10:55:22;5.65;;;2.50;;
23250;SDS011;11794;49.730;10.088;2022-08-21T10:57:58;4.40;;;1.90;;
23250;SDS011;11794;49.730;10.088;2022-08-21T11:00:33;5.53;;;2.30;;
23250;SDS011;11794;49.730;10.088;2022-08-21T11:03:37;5.17;;;2.40;;
23250;SDS011;11794;49.730;10.088;2022-08-21T11:08:45;5.72;;;2.42;;
23250;SDS011;11794;49.730;10.088;2022-08-21T11:11:20;5.57;;;2.40;;
23250;SDS011;11794;49.730;10.088;2022-08-21T11:13:52;5.53;;;2.60;;
23250;SDS011;11794;49.730;10.088;2022-08-21T11:16:25;4.90;;;2.10;;
23250;SDS011;11794;49.730;10.088;2022-08-21T11:21:53;7.50;;;2.53;;
23250;SDS011;11794;49.730;10.088;2022-08-21T11:24:48;5.05;;;2.30;;
23250;SDS011;11794;49.730;10.088;2022-08-21T11:29:52;4.73;;;2.10;;
23250;SDS011;11794;49.730;10.088;2022-08-21T11:34:59;4.60;;;2.10;;
23250;SDS011;11794;49.730;10.088;2022-08-21T11:37:45;5.07;;;2.30;;
23250;SDS011;11794;49.730;10.088;2022-08-21T11:43:19;4.82;;;2.05;;
23250;SDS011;11794;49.730;10.088;2022-08-21T11:45:56;4.95;;;1.80;;
23250;SDS011;11794;49.730;10.088;2022-08-21T11:51:14;5.20;;;2.42;;
23250;SDS011;11794;49.730;10.088;2022-08-21T11:56:24;4.70;;;2.13;;
23250;SDS011;11794;49.730;10.088;2022-08-21T11:59:02;5.43;;;2.10;;
23250;SDS011;11794;49.730;10.088;2022-08-21T12:01:33;5.15;;;2.55;;
23250;SDS011;11794;49.730;10.088;2022-08-21T12:04:15;5.05;;;2.20;;
23250;SDS011;11794;49.730;10.088;2022-08-21T12:06:56;7.13;;;2.17;;
23250;SDS011;11794;49.730;10.088;2022-08-21T12:09:34;5.35;;;2.45;;
23250;SDS011;11794;49.730;10.088;2022-08-21T12:14:39;4.93;;;2.00;;
23250;SDS011;11794;49.730;10.088;2022-08-21T12:17:08;4.43;;;2.28;;
23250;SDS011;11794;49.730;10.088;2022-08-21T12:19:43;5.53;;;2.30;;
23250;SDS011;11794;49.730;10.088;2022-08-21T12:22:10;4.70;;;2.37;;
23250;SDS011;11794;49.730;10.088;2022-08-21T12:27:27;6.05;;;2.13;;
23250;SDS011;11794;49.730;10.088;2022-08-21T12:30:06;4.30;;;2.22;;
23250;SDS011;11794;49.730;10.088;2022-08-21T12:32:45;5.70;;;2.33;;
23250;SDS011;11794;49.730;10.088;2022-08-21T12:35:41;4.75;;;2.22;;
23250;SDS011;11794;49.730;10.088;2022-08-21T12:38:26;4.57;;;2.13;;
23250;SDS011;11794;49.730;10.088;2022-08-21T12:41:28;5.23;;;2.60;;
23250;SDS011;11794;49.730;10.088;2022-08-21T12:43:54;4.75;;;2.00;;
23250;SDS011;11794;49.730;10.088;2022-08-21T12:46:29;4.93;;;2.42;;
23250;SDS011;11794;49.730;10.088;2022-08-21T12:49:03;5.22;;;2.30;;
23250;SDS011;11794;49.730;10.088;2022-08-21T12:54:25;5.10;;;2.10;;
23250;SDS011;11794;49.730;10.088;2022-08-21T12:57:00;5.50;;;2.30;;
23250;SDS011;11794;49.730;10.088;2022-08-21T12:59:28;5.93;;;2.80;;
23250;SDS011;11794;49.730;10.088;2022-08-21T13:01:55;4.80;;;2.47;;
23250;SDS011;11794;49.730;10.088;2022-08-21T13:04:31;5.20;;;2.77;;
23250;SDS011;11794;49.730;10.088;2022-08-21T13:07:00;4.43;;;2.10;;
23250;SDS011;11794;49.730;10.088;2022-08-21T13:09:30;5.60;;;2.50;;
23250;SDS011;11794;49.730;10.088;2022-08-21T13:11:56;4.72;;;2.45;;
23250;SDS011;11794;49.730;10.088;2022-08-21T13:14:39;5.10;;;2.63;;
23250;SDS011;11794;49.730;10.088;2022-08-21T13:17:07;6.80;;;2.92;;
23250;SDS011;11794;49.730;10.088;2022-08-21T13:19:35;5.00;;;2.45;;
23250;SDS011;11794;49.730;10.088;2022-08-21T13:22:00;4.70;;;2.58;;
23250;SDS011;11794;49.730;10.088;2022-08-21T13:24:37;5.23;;;2.20;;
23250;SDS011;11794;49.730;10.088;2022-08-21T13:27:03;6.47;;;2.38;;
23250;SDS011;11794;49.730;10.088;2022-08-21T13:29:39;4.82;;;2.20;;
23250;SDS011;11794;49.730;10.088;2022-08-21T13:32:05;4.82;;;2.42;;
23250;SDS011;11794;49.730;10.088;2022-08-21T13:34:35;4.43;;;2.00;;
23250;SDS011;11794;49.730;10.088;2022-08-21T13:37:04;4.63;;;2.20;;
23250;SDS011;11794;49.730;10.088;2022-08-21T13:39:30;4.40;;;2.13;;
23250;SDS011;11794;49.730;10.088;2022-08-21T13:41:57;5.30;;;2.33;;
23250;SDS011;11794;49.730;10.088;2022-08-21T13:47:00;5.78;;;2.05;;
23250;SDS011;11794;49.730;10.088;2022-08-21T13:49:34;5.10;;;2.10;;
23250;SDS011;11794;49.730;10.088;2022-08-21T13:52:03;4.90;;;1.95;;
23250;SDS011;11794;49.730;10.088;2022-08-21T13:54:35;5.22;;;2.20;;
23250;SDS011;11794;49.730;10.088;2022-08-21T13:57:03;6.03;;;2.43;;
23250;SDS011;11794;49.730;10.088;2022-08-21T13:59:34;5.13;;;2.20;;
23250;SDS011;11794;49.730;10.088;2022-08-21T14:02:07;5.07;;;2.17;;
23250;SDS011;11794;49.730;10.088;2022-08-21T14:04:53;7.10;;;2.15;;
23250;SDS011;11794;49.730;10.088;2022-08-21T14:07:26;6.60;;;2.50;;
23250;SDS011;11794;49.730;10.088;2022-08-21T14:10:00;5.50;;;2.45;;
23250;SDS011;11794;49.730;10.088;2022-08-21T14:12:29;4.75;;;2.10;;
23250;SDS011;11794;49.730;10.088;2022-08-21T14:15:03;5.38;;;2.17;;
23250;SDS011;11794;49.730;10.088;2022-08-21T14:17:32;5.38;;;2.40;;
23250;SDS011;11794;49.730;10.088;2022-08-21T14:20:00;5.10;;;2.22;;
23250;SDS011;11794;49.730;10.088;2022-08-21T14:25:00;6.13;;;2.20;;
23250;SDS011;11794;49.730;10.088;2022-08-21T14:27:32;4.93;;;1.85;;
23250;SDS011;11794;49.730;10.088;2022-08-21T14:30:08;6.80;;;2.35;;
23250;SDS011;11794;49.730;10.088;2022-08-21T14:32:38;5.15;;;2.20;;
23250;SDS011;11794;49.730;10.088;2022-08-21T14:35:07;4.57;;;1.75;;
23250;SDS011;11794;49.730;10.088;2022-08-21T14:37:33;5.90;;;2.00;;
23250;SDS011;11794;49.730;10.088;2022-08-21T14:39:59;4.43;;;1.90;;
23250;SDS011;11794;49.730;10.088;2022-08-21T14:42:26;5.00;;;2.45;;
23250;SDS011;11794;49.730;10.088;2022-08-21T14:44:51;5.60;;;2.23;;
23250;SDS011;11794;49.730;10.088;2022-08-21T14:47:21;4.78;;;2.30;;
23250;SDS011;11794;49.730;10.088;2022-08-21T14:49:47;5.13;;;2.25;;
23250;SDS011;11794;49.730;10.088;2022-08-21T14:52:12;5.77;;;2.10;;
23250;SDS011;11794;49.730;10.088;2022-08-21T14:54:38;5.87;;;2.37;;
23250;SDS011;11794;49.730;10.088;2022-08-21T14:57:08;7.13;;;2.35;;
23250;SDS011;11794;49.730;10.088;2022-08-21T14:59:36;4.40;;;1.87;;
23250;SDS011;11794;49.730;10.088;2022-08-21T15:02:02;5.47;;;1.93;;
23250;SDS011;11794;49.730;10.088;2022-08-21T15:04:32;4.75;;;2.00;;
23250;SDS011;11794;49.730;10.088;2022-08-21T15:06:58;5.75;;;2.20;;
23250;SDS011;11794;49.730;10.088;2022-08-21T15:09:23;6.13;;;2.08;;
23250;SDS011;11794;49.730;10.088;2022-08-21T15:11:49;5.00;;;2.00;;
23250;SDS011;11794;49.730;10.088;2022-08-21T15:14:19;7.95;;;2.00;;
23250;SDS011;11794;49.730;10.088;2022-08-21T15:16:48;4.90;;;1.90;;
23250;SDS011;11794;49.730;10.088;2022-08-21T15:19:15;4.85;;;1.65;;
23250;SDS011;11794;49.730;10.088;2022-08-21T15:21:40;4.50;;;1.70;;
23250;SDS011;11794;49.730;10.088;2022-08-21T15:24:06;5.18;;;1.70;;
23250;SDS011;11794;49.730;10.088;2022-08-21T15:26:31;4.50;;;1.80;;
23250;SDS011;11794;49.730;10.088;2022-08-21T15:28:59;4.82;;;1.90;;
23250;SDS011;11794;49.730;10.088;2022-08-21T15:31:25;5.80;;;1.80;;
23250;SDS011;11794;49.730;10.088;2022-08-21T15:33:52;5.20;;;1.88;;
23250;SDS011;11794;49.730;10.088;2022-08-21T15:36:18;5.27;;;2.00;;
23250;SDS011;11794;49.730;10.088;2022-08-21T15:38:44;6.90;;;2.00;;